Time;durP1;ratioP1;P1;durP2;ratioP2;P2;SDS_P1;SDS_P2;PMS_P1;PMS_P2;Temp;Humidity;BMP_temperature;BMP_pressure;BME280_temperature;BME280_humidity;BME280_pressure;Samples;Min_cycle;Max_cycle;Signal;HPM_P1;HPM_P2
2022/11/08 00:01:36;;;;;;;14.07;2.63;;;12.50;99.90;;;;;;5058818;28;20101;-69
2022/11/08 00:04:13;;;;;;;15.25;2.30;;;12.50;99.90;;;;;;5055188;28;20040;-69
2022/11/08 00:14:54;;;;;;;;;;;12.50;99.90;;;;;;5062204;28;20125;-68
2022/11/08 00:17:21;;;;;;;11.30;2.58;;;12.50;99.90;;;;;;5059004;28;20316;-69
2022/11/08 00:19:47;;;;;;;14.95;2.63;;;12.50;99.90;;;;;;5041583;28;20392;-69
2022/11/08 00:22:14;;;;;;;12.07;2.60;;;12.50;99.90;;;;;;5056902;28;20028;-69
2022/11/08 00:24:40;;;;;;;14.10;2.90;;;12.50;99.90;;;;;;5049060;28;20488;-69
2022/11/08 00:27:09;;;;;;;16.17;2.67;;;12.50;99.90;;;;;;5039593;28;20173;-68
2022/11/08 00:29:35;;;;;;;10.82;2.13;;;12.40;99.90;;;;;;5061137;28;20081;-69
2022/11/08 00:32:08;;;;;;;13.05;2.08;;;12.50;99.90;;;;;;5058055;28;20041;-69
2022/11/08 00:34:34;;;;;;;13.85;2.83;;;12.40;99.90;;;;;;5060392;28;20420;-68
2022/11/08 00:37:01;;;;;;;10.52;2.40;;;12.50;99.90;;;;;;5059586;28;20056;-69
2022/11/08 00:39:26;;;;;;;15.15;2.63;;;12.50;99.90;;;;;;5064630;28;20494;-68
2022/11/08 00:41:52;;;;;;;9.38;2.33;;;12.40;99.90;;;;;;5057372;28;20032;-68
2022/11/08 00:44:18;;;;;;;12.23;2.45;;;12.30;99.90;;;;;;5065380;28;20043;-68
2022/11/08 00:46:44;;;;;;;12.77;2.45;;;12.40;99.90;;;;;;5040609;28;20108;-68
2022/11/08 00:49:10;;;;;;;12.65;2.72;;;12.30;99.90;;;;;;5061415;28;20044;-69
2022/11/08 00:51:36;;;;;;;10.00;2.38;;;12.20;99.90;;;;;;5058929;28;20051;-68
2022/11/08 00:54:05;;;;;;;12.18;2.20;;;12.20;99.90;;;;;;5057913;28;20337;-69
2022/11/08 00:56:32;;;;;;;11.65;2.25;;;12.20;99.90;;;;;;5058892;28;20491;-69
2022/11/08 00:58:59;;;;;;;14.13;2.58;;;12.10;99.90;;;;;;5041047;28;20044;-69
2022/11/08 01:01:25;;;;;;;11.02;2.13;;;12.10;99.90;;;;;;5058276;28;20036;-68
2022/11/08 01:03:51;;;;;;;8.30;2.10;;;12.10;99.90;;;;;;5057569;28;20117;-69
2022/11/08 01:06:21;;;;;;;11.35;2.38;;;12.00;99.90;;;;;;5041069;28;20047;-69
2022/11/08 01:08:48;;;;;;;10.00;2.55;;;11.90;99.90;;;;;;5056767;28;20388;-69
2022/11/08 01:11:20;;;;;;;12.15;2.30;;;11.90;99.90;;;;;;5061620;28;20074;-69
2022/11/08 01:13:47;;;;;;;11.13;2.40;;;11.90;99.90;;;;;;5060038;28;20131;-69
2022/11/08 01:16:15;;;;;;;14.43;2.33;;;11.80;99.90;;;;;;5060958;28;20029;-68
2022/11/08 01:18:43;;;;;;;11.55;2.33;;;11.80;99.90;;;;;;5052859;28;20480;-69
2022/11/08 01:21:09;;;;;;;11.65;2.58;;;11.80;99.90;;;;;;5057763;28;20076;-68
2022/11/08 01:23:36;;;;;;;8.50;1.95;;;11.80;99.90;;;;;;5057115;28;20095;-68
2022/11/08 01:26:07;;;;;;;12.77;2.20;;;11.70;99.90;;;;;;5043590;28;20047;-69
2022/11/08 01:28:34;;;;;;;10.60;2.35;;;11.70;99.90;;;;;;5050607;28;20040;-68
2022/11/08 01:31:06;;;;;;;9.55;1.80;;;11.70;99.90;;;;;;5063411;28;20037;-69
2022/11/08 01:33:32;;;;;;;10.40;2.10;;;11.70;99.90;;;;;;5056668;28;20578;-69
2022/11/08 01:35:58;;;;;;;12.43;2.47;;;11.60;99.90;;;;;;5061434;28;20555;-69
2022/11/08 01:38:26;;;;;;;11.13;2.40;;;11.70;99.90;;;;;;5059411;28;20080;-69
2022/11/08 01:40:52;;;;;;;11.07;2.28;;;11.60;99.90;;;;;;5064782;28;20416;-69
2022/11/08 01:43:35;;;;;;;9.15;2.15;;;11.60;99.90;;;;;;5062744;28;20115;-69
2022/11/08 01:46:28;;;;;;;8.10;2.10;;;11.60;99.90;;;;;;5060796;28;20087;-69
2022/11/08 01:49:14;;;;;;;9.95;2.30;;;11.60;99.90;;;;;;5058550;28;20503;-69
2022/11/08 01:52:05;;;;;;;12.52;2.75;;;11.50;99.90;;;;;;5065507;28;20479;-69
2022/11/08 01:54:57;;;;;;;12.43;2.35;;;11.50;99.90;;;;;;5050106;28;20041;-69
2022/11/08 01:58:04;;;;;;;9.85;2.25;;;11.50;99.90;;;;;;5049868;28;20064;-69
2022/11/08 02:00:30;;;;;;;11.50;2.70;;;11.40;99.90;;;;;;4990318;28;20109;-65
2022/11/08 02:02:58;;;;;;;11.75;2.65;;;11.30;99.90;;;;;;4992147;28;20442;-66
2022/11/08 02:05:27;;;;;;;12.27;2.13;;;11.30;99.90;;;;;;5016984;28;20053;-66
2022/11/08 02:08:05;;;;;;;12.88;2.63;;;11.30;99.90;;;;;;5042937;28;20132;-66
2022/11/08 02:10:37;;;;;;;12.93;2.55;;;11.40;99.90;;;;;;5063917;28;20116;-65
2022/11/08 02:13:07;;;;;;;11.38;2.55;;;11.40;99.90;;;;;;5058980;28;20411;-66
2022/11/08 02:15:32;;;;;;;12.93;2.45;;;11.30;99.90;;;;;;5059206;28;20029;-66
2022/11/08 02:17:59;;;;;;;12.25;2.33;;;11.30;99.90;;;;;;5043965;28;20337;-66
2022/11/08 02:20:25;;;;;;;11.07;2.75;;;11.20;99.90;;;;;;5046192;28;20052;-65
2022/11/08 02:23:17;;;;;;;9.80;2.05;;;11.20;99.90;;;;;;5061002;28;20040;-65
2022/11/08 02:25:43;;;;;;;12.95;2.60;;;11.20;99.90;;;;;;5056469;28;20033;-65
2022/11/08 02:28:11;;;;;;;10.70;2.13;;;11.10;99.90;;;;;;5065311;28;20052;-66
2022/11/08 02:30:37;;;;;;;6.82;2.10;;;11.10;99.90;;;;;;5063996;28;20500;-66
2022/11/08 02:33:16;;;;;;;8.85;2.20;;;11.10;99.90;;;;;;5061828;28;20141;-66
2022/11/08 02:35:45;;;;;;;12.00;2.33;;;11.10;99.90;;;;;;5061189;28;20075;-66
2022/11/08 02:38:11;;;;;;;12.32;2.45;;;11.10;99.90;;;;;;5065945;28;20470;-66
2022/11/08 02:40:51;;;;;;;12.30;2.30;;;11.10;99.90;;;;;;5061158;28;20072;-66
2022/11/08 02:43:17;;;;;;;8.75;2.55;;;11.10;99.90;;;;;;5066597;28;20483;-66
2022/11/08 02:45:43;;;;;;;12.23;2.65;;;11.10;99.90;;;;;;5058122;28;20033;-66
2022/11/08 02:48:09;;;;;;;15.02;2.65;;;11.10;99.90;;;;;;5062085;28;20032;-66
2022/11/08 02:50:35;;;;;;;9.93;2.40;;;11.00;99.90;;;;;;5061042;28;20036;-67
2022/11/08 02:53:01;;;;;;;9.07;2.47;;;11.10;99.90;;;;;;5061354;28;20120;-66
2022/11/08 02:55:28;;;;;;;9.35;2.50;;;11.10;99.90;;;;;;5055998;28;20094;-66
2022/11/08 02:57:54;;;;;;;11.65;2.83;;;11.10;99.90;;;;;;5064350;28;20047;-66
2022/11/08 03:00:19;;;;;;;11.40;2.20;;;11.10;99.90;;;;;;5061295;28;20030;-66
2022/11/08 03:02:50;;;;;;;9.20;2.17;;;11.10;99.90;;;;;;5062773;28;20388;-66
2022/11/08 03:05:16;;;;;;;9.13;2.42;;;11.00;99.90;;;;;;5039659;28;20396;-66
2022/11/08 03:07:43;;;;;;;12.05;2.55;;;11.00;99.90;;;;;;5064738;28;20492;-66
2022/11/08 03:10:09;;;;;;;13.43;2.40;;;11.00;99.90;;;;;;5060646;28;20094;-66
2022/11/08 03:12:35;;;;;;;9.05;1.98;;;10.90;99.90;;;;;;5059163;28;20347;-65
2022/11/08 03:15:01;;;;;;;9.75;2.58;;;10.90;99.90;;;;;;5057915;28;20029;-66
2022/11/08 03:17:27;;;;;;;9.98;2.90;;;10.90;99.90;;;;;;5061599;28;20059;-67
2022/11/08 03:19:52;;;;;;;7.88;2.38;;;10.90;99.90;;;;;;5052117;28;20093;-66
2022/11/08 03:22:18;;;;;;;11.40;2.53;;;10.90;99.90;;;;;;5056722;28;20051;-67
2022/11/08 03:24:44;;;;;;;9.25;2.00;;;10.90;99.90;;;;;;5059540;28;20048;-66
2022/11/08 03:27:10;;;;;;;9.70;2.17;;;10.80;99.90;;;;;;5059846;28;20119;-66
2022/11/08 03:29:35;;;;;;;9.63;2.40;;;10.90;99.90;;;;;;5059199;28;20033;-66
2022/11/08 03:32:01;;;;;;;9.00;2.00;;;10.90;99.90;;;;;;5058850;28;20048;-66
2022/11/08 03:34:27;;;;;;;5.88;2.28;;;10.80;99.90;;;;;;5060838;28;20071;-66
2022/11/08 03:36:52;;;;;;;9.60;2.42;;;10.80;99.90;;;;;;5060335;28;20079;-66
2022/11/08 03:39:18;;;;;;;9.63;2.72;;;10.80;99.90;;;;;;5060453;28;20064;-66
2022/11/08 03:41:44;;;;;;;9.52;2.83;;;10.80;99.90;;;;;;5047655;28;20101;-67
2022/11/08 03:44:09;;;;;;;12.00;3.17;;;10.80;99.90;;;;;;5043658;28;20046;-66
2022/11/08 03:46:35;;;;;;;10.02;2.67;;;10.70;99.90;;;;;;5061321;28;20087;-66
2022/11/08 03:49:00;;;;;;;11.93;2.90;;;10.70;99.90;;;;;;5055896;28;20033;-66
2022/11/08 03:51:26;;;;;;;13.15;2.97;;;10.70;99.90;;;;;;5055203;28;20519;-67
2022/11/08 03:53:52;;;;;;;7.78;2.47;;;10.70;99.90;;;;;;5057227;28;20499;-66
2022/11/08 03:56:17;;;;;;;12.85;3.38;;;10.70;99.90;;;;;;5062250;28;20071;-66
2022/11/08 03:58:43;;;;;;;11.38;2.60;;;10.70;99.90;;;;;;5040983;28;20088;-66
2022/11/08 04:01:09;;;;;;;7.72;2.42;;;10.70;99.90;;;;;;5059166;28;20041;-66
2022/11/08 04:03:34;;;;;;;12.80;2.55;;;10.70;99.90;;;;;;5036891;28;20044;-67
2022/11/08 04:06:01;;;;;;;9.82;2.67;;;10.70;99.90;;;;;;5047325;28;20353;-66
2022/11/08 04:08:28;;;;;;;9.68;2.67;;;10.60;99.90;;;;;;5058902;28;20475;-66
2022/11/08 04:10:55;;;;;;;7.20;2.55;;;10.70;99.90;;;;;;5058171;28;20040;-66
2022/11/08 04:16:06;;;;;;;;;;;10.60;99.90;;;;;;5062455;28;20095;-66
2022/11/08 04:21:18;;;;;;;11.68;2.88;;;10.70;99.90;;;;;;5062405;28;20098;-66
2022/11/08 04:23:45;;;;;;;9.57;2.30;;;10.80;99.90;;;;;;5059436;28;20395;-66
2022/11/08 04:26:11;;;;;;;9.63;2.50;;;10.80;99.90;;;;;;5063941;28;20504;-66
2022/11/08 04:28:38;;;;;;;11.57;2.42;;;10.90;99.90;;;;;;5047978;28;20048;-66
2022/11/08 04:31:07;;;;;;;10.52;2.83;;;10.90;99.90;;;;;;5050248;28;20650;-66
2022/11/08 04:33:33;;;;;;;6.05;2.25;;;10.90;99.90;;;;;;5060198;28;20048;-66
2022/11/08 04:36:08;;;;;;;7.35;2.00;;;11.00;99.90;;;;;;5060191;28;20496;-66
2022/11/08 04:38:35;;;;;;;10.82;2.45;;;11.00;99.90;;;;;;5055776;28;20106;-65
2022/11/08 04:41:03;;;;;;;6.38;2.00;;;10.90;99.90;;;;;;5061304;28;20037;-65
2022/11/08 04:43:29;;;;;;;8.88;2.33;;;11.00;99.90;;;;;;5056365;28;20043;-66
2022/11/08 04:46:06;;;;;;;7.32;1.95;;;10.90;99.90;;;;;;5060303;28;20076;-66
2022/11/08 04:48:33;;;;;;;10.00;2.47;;;10.80;99.90;;;;;;5056521;28;20037;-65
2022/11/08 04:51:06;;;;;;;12.13;2.58;;;10.90;99.90;;;;;;5057441;28;20123;-65
2022/11/08 04:53:32;;;;;;;13.90;2.55;;;10.80;99.90;;;;;;5043886;28;20045;-65
2022/11/08 04:56:24;;;;;;;11.63;1.95;;;10.80;99.90;;;;;;5056833;28;20349;-65
2022/11/08 04:58:52;;;;;;;8.65;1.90;;;10.80;99.90;;;;;;5055558;28;20484;-66
2022/11/08 05:01:20;;;;;;;7.78;2.05;;;10.90;99.90;;;;;;5059265;28;20033;-65
2022/11/08 05:03:47;;;;;;;5.72;1.75;;;10.80;99.90;;;;;;5058511;28;20075;-65
2022/11/08 05:06:17;;;;;;;10.25;2.28;;;10.80;99.90;;;;;;5059632;28;20056;-66
2022/11/08 05:08:43;;;;;;;6.53;1.50;;;10.80;99.90;;;;;;5056489;28;20036;-65
2022/11/08 05:11:14;;;;;;;9.27;2.05;;;10.70;99.90;;;;;;5057687;28;20457;-66
2022/11/08 05:13:40;;;;;;;9.95;2.30;;;10.80;99.90;;;;;;5059601;28;20032;-65
2022/11/08 05:16:09;;;;;;;9.02;1.88;;;10.70;99.90;;;;;;5055389;28;20403;-65
2022/11/08 05:18:35;;;;;;;5.32;1.90;;;10.80;99.90;;;;;;5055686;28;20040;-66
2022/11/08 05:23:48;;;;;;;7.32;2.05;;;10.70;99.90;;;;;;5039702;28;20052;-65
2022/11/08 05:26:15;;;;;;;9.07;2.35;;;10.70;99.90;;;;;;5065073;28;20735;-65
2022/11/08 05:28:41;;;;;;;7.60;2.28;;;10.70;99.90;;;;;;5059676;28;20041;-65
2022/11/08 05:31:07;;;;;;;7.32;2.30;;;10.70;99.90;;;;;;5056381;28;20116;-64
2022/11/08 05:33:33;;;;;;;9.02;2.00;;;10.70;99.90;;;;;;5064468;28;20192;-65
2022/11/08 05:36:03;;;;;;;6.63;1.55;;;10.70;99.90;;;;;;5051940;28;20139;-65
2022/11/08 05:38:29;;;;;;;8.38;1.63;;;10.70;99.90;;;;;;5058489;28;20049;-66
2022/11/08 05:41:04;;;;;;;8.90;1.63;;;10.70;99.90;;;;;;5061822;28;20035;-65
2022/11/08 05:43:30;;;;;;;;;;;10.70;99.90;;;;;;5065904;28;20408;-65
2022/11/08 05:45:55;;;;;;;8.23;2.05;;;10.70;99.90;;;;;;5052900;28;21617;-65
2022/11/08 05:48:21;;;;;;;11.70;2.17;;;10.60;99.90;;;;;;5059646;28;20078;-65
2022/11/08 05:50:47;;;;;;;7.68;2.00;;;10.60;99.90;;;;;;5061059;28;20036;-66
2022/11/08 05:53:13;;;;;;;5.75;1.45;;;10.60;99.90;;;;;;5056884;28;20063;-65
2022/11/08 05:55:39;;;;;;;8.02;2.20;;;10.60;99.90;;;;;;5030706;28;20111;-66
2022/11/08 05:58:04;;;;;;;5.80;1.40;;;10.50;99.90;;;;;;5041178;28;20123;-66
2022/11/08 06:00:30;;;;;;;6.53;1.63;;;10.60;99.90;;;;;;5056784;28;20076;-65
2022/11/08 06:02:56;;;;;;;8.55;2.08;;;10.50;99.90;;;;;;5035493;28;20029;-66
2022/11/08 06:05:21;;;;;;;6.45;1.75;;;10.50;99.90;;;;;;5050930;28;20064;-66
2022/11/08 06:07:47;;;;;;;9.13;1.85;;;10.50;99.90;;;;;;5038509;28;20539;-66
2022/11/08 06:10:13;;;;;;;9.43;2.33;;;10.50;99.90;;;;;;5059325;28;20120;-65
2022/11/08 06:12:39;;;;;;;7.07;2.05;;;10.50;99.90;;;;;;5043974;28;20079;-65
2022/11/08 06:15:06;;;;;;;9.27;1.98;;;10.40;99.90;;;;;;5060895;28;20076;-65
2022/11/08 06:17:32;;;;;;;8.73;2.30;;;10.40;99.90;;;;;;5041395;28;20037;-65
2022/11/08 06:19:58;;;;;;;6.40;1.90;;;10.30;99.90;;;;;;5060905;28;20037;-65
2022/11/08 06:22:23;;;;;;;5.72;1.90;;;10.30;99.90;;;;;;5057404;28;20032;-65
2022/11/08 06:24:49;;;;;;;11.55;2.13;;;10.30;99.90;;;;;;5063708;28;20044;-65
2022/11/08 06:27:15;;;;;;;6.30;2.20;;;10.30;99.90;;;;;;5069144;28;20123;-65
2022/11/08 06:29:44;;;;;;;9.10;2.50;;;10.20;99.90;;;;;;5052853;28;20033;-65
2022/11/08 06:32:10;;;;;;;5.22;2.15;;;10.20;99.90;;;;;;5043537;28;20060;-65
2022/11/08 06:34:35;;;;;;;9.20;2.20;;;10.20;99.90;;;;;;5063704;28;20428;-65
2022/11/08 06:37:01;;;;;;;5.72;2.28;;;10.20;99.90;;;;;;5061376;28;20191;-65
2022/11/08 06:39:27;;;;;;;5.97;2.17;;;10.20;99.90;;;;;;5043272;28;20049;-65
2022/11/08 06:41:53;;;;;;;6.78;2.13;;;10.20;99.90;;;;;;5053857;28;20067;-65
2022/11/08 06:44:18;;;;;;;8.63;2.40;;;10.20;99.90;;;;;;5062616;28;20484;-65
2022/11/08 06:46:44;;;;;;;11.23;2.65;;;10.20;99.90;;;;;;5061117;28;20033;-66
2022/11/08 06:49:10;;;;;;;8.60;2.55;;;10.20;99.90;;;;;;5062360;28;20538;-66
2022/11/08 06:51:35;;;;;;;8.75;2.13;;;10.20;99.90;;;;;;5059928;28;20036;-65
2022/11/08 06:54:02;;;;;;;9.88;2.70;;;10.20;99.90;;;;;;5036371;28;20049;-67
2022/11/08 06:56:28;;;;;;;10.07;3.33;;;10.20;99.90;;;;;;5056132;28;20037;-66
2022/11/08 06:58:54;;;;;;;8.45;2.00;;;10.20;99.90;;;;;;5008652;28;20075;-66
2022/11/08 07:01:20;;;;;;;8.57;3.03;;;10.20;99.90;;;;;;5060000;28;20037;-66
2022/11/08 07:03:45;;;;;;;5.63;2.55;;;10.20;99.90;;;;;;5058139;28;20040;-66
2022/11/08 07:06:11;;;;;;;7.18;2.13;;;10.40;99.90;;;;;;5059059;28;20032;-66
2022/11/08 07:08:37;;;;;;;9.88;2.53;;;10.40;99.90;;;;;;5059172;28;20044;-66
2022/11/08 07:11:02;;;;;;;9.80;3.58;;;10.40;99.90;;;;;;5058147;28;20463;-68
2022/11/08 07:13:28;;;;;;;8.52;2.80;;;10.40;99.90;;;;;;5063934;28;20049;-66
2022/11/08 07:15:59;;;;;;;9.55;2.45;;;10.50;99.90;;;;;;5061722;28;20032;-66
2022/11/08 07:18:25;;;;;;;7.68;2.78;;;10.50;99.90;;;;;;5060664;28;20055;-67
2022/11/08 07:20:51;;;;;;;7.15;2.38;;;10.50;99.90;;;;;;5047159;28;20095;-66
2022/11/08 07:23:18;;;;;;;8.95;2.67;;;10.50;99.90;;;;;;5062789;28;20045;-67
2022/11/08 07:25:44;;;;;;;10.57;2.65;;;10.60;99.90;;;;;;5060114;28;20041;-66
2022/11/08 07:28:16;;;;;;;8.75;2.70;;;10.60;99.90;;;;;;5065325;28;20074;-66
2022/11/08 07:30:42;;;;;;;10.77;2.60;;;10.70;99.90;;;;;;5051127;28;20040;-66
2022/11/08 07:33:07;;;;;;;7.75;2.10;;;10.70;99.90;;;;;;5064741;28;20036;-66
2022/11/08 07:35:33;;;;;;;10.38;1.98;;;10.80;99.90;;;;;;5062384;28;20514;-66
2022/11/08 07:37:59;;;;;;;8.55;2.40;;;10.80;99.90;;;;;;5062668;28;20053;-67
2022/11/08 07:40:25;;;;;;;9.15;2.42;;;10.80;99.90;;;;;;5058868;28;20036;-66
2022/11/08 07:42:51;;;;;;;7.78;2.38;;;10.90;99.90;;;;;;5065651;28;20115;-66
2022/11/08 07:45:16;;;;;;;4.93;2.10;;;10.90;99.90;;;;;;5062338;28;20033;-66
2022/11/08 07:47:42;;;;;;;7.10;2.10;;;11.00;99.90;;;;;;5066675;28;20032;-67
2022/11/08 07:50:09;;;;;;;6.40;1.85;;;11.00;99.90;;;;;;5055160;28;20450;-66
2022/11/08 07:52:35;;;;;;;7.32;1.95;;;11.10;99.90;;;;;;5047815;28;20519;-67
2022/11/08 07:55:00;;;;;;;6.18;1.83;;;11.10;99.90;;;;;;5054195;28;20064;-67
2022/11/08 07:57:26;;;;;;;8.65;2.00;;;11.20;99.90;;;;;;5059335;28;20519;-66
2022/11/08 07:59:52;;;;;;;6.47;1.92;;;11.30;99.90;;;;;;5046045;28;20047;-67
2022/11/08 08:02:17;;;;;;;6.72;1.50;;;11.30;99.90;;;;;;5055940;28;20040;-66
2022/11/08 08:04:43;;;;;;;6.07;1.73;;;11.40;99.90;;;;;;5055590;28;20041;-66
2022/11/08 08:07:11;;;;;;;6.78;2.33;;;11.70;99.90;;;;;;5061329;28;20036;-66
2022/11/08 08:09:36;;;;;;;7.65;1.73;;;11.90;99.90;;;;;;5042171;28;20052;-66
2022/11/08 08:12:03;;;;;;;4.78;1.80;;;12.30;99.90;;;;;;5061003;28;20032;-66
2022/11/08 08:14:28;;;;;;;6.47;1.98;;;12.60;99.90;;;;;;5060248;28;20041;-66
2022/11/08 08:16:54;;;;;;;5.65;1.80;;;12.90;99.90;;;;;;5060265;28;20039;-66
2022/11/08 08:19:20;;;;;;;5.75;1.52;;;13.30;99.90;;;;;;5057112;28;20044;-66
2022/11/08 08:21:46;;;;;;;5.30;1.58;;;13.60;99.90;;;;;;5059154;28;20519;-67
2022/11/08 08:24:11;;;;;;;6.80;1.88;;;13.70;99.90;;;;;;5062894;28;20112;-67
2022/11/08 08:26:37;;;;;;;6.40;1.90;;;13.70;99.90;;;;;;5060657;28;20033;-66
2022/11/08 08:29:03;;;;;;;3.83;1.42;;;13.70;99.90;;;;;;5061497;28;20519;-66
2022/11/08 08:31:28;;;;;;;5.00;1.67;;;13.80;99.90;;;;;;5059590;28;20037;-66
2022/11/08 08:33:54;;;;;;;4.25;1.65;;;13.90;99.90;;;;;;5044149;28;20041;-66
2022/11/08 08:36:20;;;;;;;5.70;1.98;;;14.10;99.90;;;;;;5058579;28;20568;-66
2022/11/08 08:38:46;;;;;;;4.10;1.38;;;14.60;99.90;;;;;;5062713;28;20047;-67
2022/11/08 08:41:11;;;;;;;5.03;1.45;;;14.80;99.90;;;;;;5057230;28;20043;-66
2022/11/08 08:43:37;;;;;;;6.97;1.73;;;14.60;99.90;;;;;;5044090;28;20448;-66
2022/11/08 08:46:05;;;;;;;4.78;1.45;;;14.50;99.90;;;;;;5063480;28;20063;-67
2022/11/08 08:48:32;;;;;;;5.47;1.52;;;14.50;99.90;;;;;;5060117;28;20524;-67
2022/11/08 08:50:58;;;;;;;5.07;1.50;;;14.50;99.90;;;;;;5054918;28;20348;-66
2022/11/08 08:53:25;;;;;;;5.22;1.55;;;14.50;99.90;;;;;;5051392;28;20047;-66
2022/11/08 08:55:53;;;;;;;6.45;1.80;;;14.50;99.90;;;;;;5029255;28;20036;-67
2022/11/08 08:58:20;;;;;;;3.58;1.58;;;14.60;99.90;;;;;;5059117;28;20121;-66
2022/11/08 09:00:46;;;;;;;4.70;1.65;;;14.90;99.90;;;;;;5062451;28;20373;-66
2022/11/08 09:03:12;;;;;;;4.82;1.83;;;15.10;99.90;;;;;;5059885;28;20112;-66
2022/11/08 09:05:42;;;;;;;7.78;1.40;;;15.30;99.90;;;;;;5061956;28;20051;-66
2022/11/08 09:08:09;;;;;;;4.57;1.50;;;15.60;99.90;;;;;;5060163;28;20064;-66
2022/11/08 09:10:35;;;;;;;4.05;1.30;;;15.80;99.90;;;;;;5063202;28;20194;-66
2022/11/08 09:13:01;;;;;;;3.63;1.95;;;15.90;99.90;;;;;;5064872;28;20081;-65
2022/11/08 09:15:28;;;;;;;5.22;1.83;;;15.70;99.90;;;;;;5045551;28;20045;-66
2022/11/08 09:17:54;;;;;;;5.07;1.50;;;15.60;99.90;;;;;;5058676;28;20044;-67
2022/11/08 09:20:21;;;;;;;5.95;1.73;;;15.50;99.90;;;;;;5061554;28;20102;-66
2022/11/08 09:22:47;;;;;;;3.42;1.60;;;15.60;99.90;;;;;;5059362;28;20095;-66
2022/11/08 09:25:13;;;;;;;3.85;1.75;;;15.80;99.90;;;;;;5064688;28;20040;-66
2022/11/08 09:27:38;;;;;;;4.72;1.50;;;16.00;99.90;;;;;;5060638;28;20052;-66
2022/11/08 09:30:05;;;;;;;5.32;1.45;;;16.20;99.90;;;;;;5062466;28;20035;-66
2022/11/08 09:32:31;;;;;;;4.30;1.80;;;16.40;99.90;;;;;;5062452;28;20043;-67
2022/11/08 09:34:57;;;;;;;4.70;2.15;;;16.30;99.90;;;;;;5058214;28;20052;-66
2022/11/08 09:37:23;;;;;;;6.75;2.33;;;16.20;99.90;;;;;;5062347;28;20044;-66
2022/11/08 09:39:49;;;;;;;5.63;2.10;;;16.10;99.90;;;;;;5060038;28;20094;-66
2022/11/08 09:42:33;;;;;;;7.93;2.67;;;15.90;99.90;;;;;;5046796;28;20131;-66
2022/11/08 09:45:17;;;;;;;5.95;2.10;;;15.70;99.90;;;;;;5059685;28;20525;-66
2022/11/08 09:47:46;;;;;;;6.18;2.17;;;15.30;99.90;;;;;;5059774;28;20048;-66
2022/11/08 09:50:30;;;;;;;3.15;1.63;;;15.00;99.90;;;;;;5042052;28;20107;-66
2022/11/08 09:53:17;;;;;;;3.47;1.20;;;14.80;99.90;;;;;;5057916;28;20041;-66
2022/11/08 09:55:55;;;;;;;3.65;1.30;;;14.60;99.90;;;;;;5054808;28;20044;-66
2022/11/08 09:58:27;;;;;;;4.35;1.23;;;14.60;99.90;;;;;;5061861;28;20040;-66
2022/11/08 10:00:53;;;;;;;3.30;1.10;;;14.70;99.90;;;;;;5059599;28;20119;-66
2022/11/08 10:03:22;;;;;;;4.50;1.40;;;14.70;99.90;;;;;;5058604;28;20116;-66
2022/11/08 10:06:17;;;;;;;5.70;1.25;;;14.70;99.90;;;;;;5063998;28;20060;-66
2022/11/08 10:09:09;;;;;;;4.80;1.47;;;14.60;99.90;;;;;;5056680;28;20235;-66
2022/11/08 10:12:09;;;;;;;5.82;1.40;;;14.50;99.90;;;;;;5061169;28;20040;-66
2022/11/08 10:14:47;;;;;;;4.53;1.30;;;14.50;99.90;;;;;;5044765;28;20053;-66
2022/11/08 10:17:50;;;;;;;3.05;1.10;;;14.50;99.90;;;;;;5061901;28;20393;-66
2022/11/08 10:20:34;;;;;;;7.45;1.60;;;14.40;99.90;;;;;;5052997;28;20040;-66
2022/11/08 10:23:06;;;;;;;3.47;1.45;;;14.40;99.90;;;;;;5062404;28;20068;-66
2022/11/08 10:26:12;;;;;;;3.47;1.27;;;14.40;99.90;;;;;;5060747;28;20444;-66
2022/11/08 10:28:46;;;;;;;2.10;0.95;;;14.50;99.90;;;;;;5035539;28;20055;-66
2022/11/08 10:31:12;;;;;;;3.25;1.23;;;14.50;99.90;;;;;;5064881;28;20134;-66
2022/11/08 10:33:52;;;;;;;3.33;1.15;;;14.50;99.90;;;;;;5048239;28;20129;-66
2022/11/08 10:36:43;;;;;;;2.72;1.27;;;14.50;99.90;;;;;;5060776;28;20045;-66
2022/11/08 10:39:21;;;;;;;4.93;1.10;;;14.50;99.90;;;;;;5060435;28;20445;-66
2022/11/08 10:42:11;;;;;;;2.65;1.00;;;14.50;99.90;;;;;;5057980;28;20064;-66
2022/11/08 10:44:39;;;;;;;3.17;1.17;;;14.40;99.90;;;;;;5063226;28;20081;-66
2022/11/08 10:47:12;;;;;;;3.63;1.00;;;14.30;99.90;;;;;;5045377;28;20042;-66
2022/11/08 10:49:40;;;;;;;4.25;1.30;;;14.20;99.90;;;;;;5063295;28;20045;-66
2022/11/08 10:52:32;;;;;;;2.13;1.10;;;14.10;99.90;;;;;;5055363;28;20045;-66
2022/11/08 10:55:00;;;;;;;3.90;1.10;;;14.10;99.90;;;;;;5062172;28;20403;-66
2022/11/08 10:57:31;;;;;;;4.80;1.40;;;14.00;99.90;;;;;;5059757;28;20395;-66
2022/11/08 11:00:14;;;;;;;3.53;1.48;;;14.00;99.90;;;;;;5055414;28;20037;-67
2022/11/08 11:02:41;;;;;;;2.50;1.50;;;13.90;99.90;;;;;;5060532;28;20488;-66
2022/11/08 11:05:16;;;;;;;3.67;1.17;;;13.80;99.90;;;;;;5061706;28;20067;-66
2022/11/08 11:08:13;;;;;;;5.07;1.50;;;13.80;99.90;;;;;;5056957;28;20045;-65
2022/11/08 11:10:46;;;;;;;3.97;2.35;;;13.80;99.90;;;;;;5060993;28;20037;-66
2022/11/08 11:13:22;;;;;;;3.00;1.13;;;13.80;99.90;;;;;;5064341;28;20225;-66
2022/11/08 11:15:57;;;;;;;4.55;1.23;;;13.90;99.90;;;;;;5061656;28;20052;-66
2022/11/08 11:18:38;;;;;;;4.43;1.20;;;14.00;99.90;;;;;;5060750;28;20037;-66
2022/11/08 11:21:10;;;;;;;2.60;0.77;;;14.20;99.90;;;;;;5062241;28;20033;-66
2022/11/08 11:23:52;;;;;;;3.97;1.10;;;14.30;99.90;;;;;;5061460;28;20043;-66
2022/11/08 11:26:53;;;;;;;5.72;1.20;;;14.30;99.90;;;;;;5061769;28;20090;-66
2022/11/08 11:29:24;;;;;;;2.72;1.20;;;14.40;99.90;;;;;;5022877;28;20349;-65
2022/11/08 11:31:51;;;;;;;3.72;1.60;;;14.50;99.90;;;;;;5059767;28;20554;-66
2022/11/08 11:34:17;;;;;;;2.85;1.33;;;14.60;99.90;;;;;;5065002;28;20109;-66
2022/11/08 11:37:09;;;;;;;4.18;1.50;;;14.60;99.90;;;;;;5064152;28;20057;-65
2022/11/08 11:39:48;;;;;;;4.15;1.50;;;14.60;99.90;;;;;;5062778;28;20047;-66
2022/11/08 11:42:33;;;;;;;3.47;1.05;;;14.60;99.90;;;;;;5060558;28;20041;-66
2022/11/08 11:45:07;;;;;;;;;;;14.60;99.90;;;;;;5065657;28;20044;-66
2022/11/08 11:47:55;;;;;;;3.50;1.10;;;14.60;99.90;;;;;;5057987;28;19956;-67
2022/11/08 11:50:28;;;;;;;5.18;1.50;;;14.70;99.90;;;;;;5063886;28;20459;-66
2022/11/08 11:52:55;;;;;;;6.22;1.35;;;14.70;99.90;;;;;;5059483;28;20040;-66
2022/11/08 11:55:41;;;;;;;5.25;1.10;;;14.70;99.90;;;;;;5065252;28;20534;-66
2022/11/08 11:58:23;;;;;;;5.40;1.35;;;14.70;99.90;;;;;;5059767;28;20036;-66
2022/11/08 12:01:01;;;;;;;3.65;1.42;;;14.80;99.90;;;;;;5058694;28;20036;-66
2022/11/08 12:04:23;;;;;;;2.85;1.27;;;14.80;99.90;;;;;;5059338;28;20044;-66
2022/11/08 12:07:17;;;;;;;5.40;1.70;;;14.80;99.90;;;;;;4964109;28;20039;-66
2022/11/08 12:10:02;;;;;;;10.25;4.15;;;14.80;99.90;;;;;;4964147;28;20097;-66
2022/11/08 12:12:40;;;;;;;12.10;4.55;;;14.90;99.90;;;;;;5051869;28;20052;-66
2022/11/08 12:15:22;;;;;;;6.10;2.75;;;14.90;99.90;;;;;;5057703;28;20052;-66
2022/11/08 12:18:19;;;;;;;4.50;1.25;;;15.00;99.90;;;;;;5051666;28;20426;-66
2022/11/08 12:20:56;;;;;;;4.93;1.92;;;15.10;99.90;;;;;;5059549;28;20057;-66
2022/11/08 12:23:44;;;;;;;4.85;1.85;;;15.10;99.90;;;;;;5058594;28;20048;-66
2022/11/08 12:26:23;;;;;;;5.55;1.27;;;15.10;99.90;;;;;;5063653;28;20512;-66
2022/11/08 12:29:02;;;;;;;3.65;1.08;;;15.10;99.90;;;;;;5059056;28;20047;-66
2022/11/08 12:32:08;;;;;;;3.30;1.40;;;15.00;99.90;;;;;;5061901;28;20485;-66
2022/11/08 12:35:15;;;;;;;1.60;0.80;;;14.90;99.90;;;;;;5040286;28;20480;-66
2022/11/08 12:38:28;;;;;;;2.60;1.13;;;14.80;99.90;;;;;;5046115;28;20049;-66
2022/11/08 12:41:04;;;;;;;4.25;1.13;;;14.70;99.90;;;;;;5003460;28;20476;-66
2022/11/08 12:44:19;;;;;;;4.50;1.30;;;14.60;99.90;;;;;;5060072;28;20044;-65
2022/11/08 12:46:57;;;;;;;4.43;1.37;;;14.60;99.90;;;;;;4974134;28;20136;-66
2022/11/08 12:49:41;;;;;;;7.10;1.20;;;14.50;99.90;;;;;;5059749;28;20298;-66
2022/11/08 12:52:34;;;;;;;6.35;1.48;;;14.60;99.90;;;;;;5061970;28;20086;-67
2022/11/08 12:55:03;;;;;;;5.03;1.33;;;14.60;99.90;;;;;;5054781;28;20063;-66
2022/11/08 12:57:30;;;;;;;2.67;1.10;;;14.50;99.90;;;;;;5062632;28;20048;-65
2022/11/08 13:00:16;;;;;;;4.80;1.17;;;14.60;99.90;;;;;;5059704;28;20032;-66
2022/11/08 13:02:49;;;;;;;2.45;1.20;;;14.60;99.90;;;;;;5057008;28;20106;-66
2022/11/08 13:05:30;;;;;;;4.25;1.45;;;14.60;99.90;;;;;;5065436;28;20048;-66
2022/11/08 13:08:18;;;;;;;5.32;1.45;;;14.60;99.90;;;;;;5059233;28;20036;-66
2022/11/08 13:10:49;;;;;;;4.60;1.35;;;14.60;99.90;;;;;;5058797;28;20048;-66
2022/11/08 13:13:20;;;;;;;3.03;1.17;;;14.70;99.90;;;;;;5061684;28;20083;-66
2022/11/08 13:16:09;;;;;;;3.10;1.30;;;14.60;99.90;;;;;;5044456;28;20048;-65
2022/11/08 13:18:55;;;;;;;4.90;1.10;;;14.60;99.90;;;;;;5055822;28;21432;-65
2022/11/08 13:21:27;;;;;;;5.15;1.38;;;14.70;99.90;;;;;;5057415;28;20099;-66
2022/11/08 13:24:13;;;;;;;5.88;1.60;;;14.60;99.90;;;;;;5060083;28;20044;-66